sensor_id;sensor_type;location;lat;lon;timestamp;P1;durP1;ratioP1;P2;durP2;ratioP2
19671;SDS011;9983;51.114;13.788;2023-05-13T00:03:02;5.68;;;4.70;;
19671;SDS011;9983;51.114;13.788;2023-05-13T00:08:02;6.78;;;5.35;;
19671;SDS011;9983;51.114;13.788;2023-05-13T00:13:06;5.05;;;4.60;;
19671;SDS011;9983;51.114;13.788;2023-05-13T00:18:07;7.55;;;5.13;;
19671;SDS011;9983;51.114;13.788;2023-05-13T00:23:07;5.68;;;4.88;;
19671;SDS011;9983;51.114;13.788;2023-05-13T00:28:08;6.45;;;5.38;;
19671;SDS011;9983;51.114;13.788;2023-05-13T00:33:08;7.10;;;5.28;;
19671;SDS011;9983;51.114;13.788;2023-05-13T00:38:08;5.55;;;5.05;;
19671;SDS011;9983;51.114;13.788;2023-05-13T00:43:08;5.78;;;5.22;;
19671;SDS011;9983;51.114;13.788;2023-05-13T00:48:09;6.13;;;4.97;;
19671;SDS011;9983;51.114;13.788;2023-05-13T00:53:10;5.50;;;5.10;;
19671;SDS011;9983;51.114;13.788;2023-05-13T00:58:11;5.38;;;4.88;;
19671;SDS011;9983;51.114;13.788;2023-05-13T01:03:13;6.10;;;5.03;;
19671;SDS011;9983;51.114;13.788;2023-05-13T01:13:52;5.47;;;4.97;;
19671;SDS011;9983;51.114;13.788;2023-05-13T01:24:38;5.55;;;5.05;;
19671;SDS011;9983;51.114;13.788;2023-05-13T01:29:38;6.18;;;5.57;;
19671;SDS011;9983;51.114;13.788;2023-05-13T01:34:39;6.03;;;5.38;;
19671;SDS011;9983;51.114;13.788;2023-05-13T01:39:41;6.07;;;5.43;;
19671;SDS011;9983;51.114;13.788;2023-05-13T01:44:42;6.27;;;5.67;;
19671;SDS011;9983;51.114;13.788;2023-05-13T01:49:42;7.93;;;5.63;;
19671;SDS011;9983;51.114;13.788;2023-05-13T01:54:42;6.53;;;5.82;;
19671;SDS011;9983;51.114;13.788;2023-05-13T01:59:42;6.60;;;5.60;;
19671;SDS011;9983;51.114;13.788;2023-05-13T02:04:43;5.73;;;5.23;;
19671;SDS011;9983;51.114;13.788;2023-05-13T02:09:43;5.55;;;5.05;;
19671;SDS011;9983;51.114;13.788;2023-05-13T02:14:43;6.22;;;5.40;;
19671;SDS011;9983;51.114;13.788;2023-05-13T02:19:44;6.20;;;5.35;;
19671;SDS011;9983;51.114;13.788;2023-05-13T02:24:44;5.88;;;4.97;;
19671;SDS011;9983;51.114;13.788;2023-05-13T02:29:44;6.03;;;5.22;;
19671;SDS011;9983;51.114;13.788;2023-05-13T02:34:45;6.03;;;5.40;;
19671;SDS011;9983;51.114;13.788;2023-05-13T02:39:45;6.20;;;5.60;;
19671;SDS011;9983;51.114;13.788;2023-05-13T02:44:45;5.68;;;5.18;;
19671;SDS011;9983;51.114;13.788;2023-05-13T02:49:46;6.43;;;5.82;;
19671;SDS011;9983;51.114;13.788;2023-05-13T02:54:46;8.85;;;5.38;;
19671;SDS011;9983;51.114;13.788;2023-05-13T02:59:47;6.45;;;5.88;;
19671;SDS011;9983;51.114;13.788;2023-05-13T03:04:48;6.90;;;5.85;;
19671;SDS011;9983;51.114;13.788;2023-05-13T03:09:48;6.43;;;5.82;;
19671;SDS011;9983;51.114;13.788;2023-05-13T03:14:48;6.93;;;5.55;;
19671;SDS011;9983;51.114;13.788;2023-05-13T03:19:48;6.13;;;5.53;;
19671;SDS011;9983;51.114;13.788;2023-05-13T03:24:49;5.70;;;5.05;;
19671;SDS011;9983;51.114;13.788;2023-05-13T03:29:49;6.55;;;5.22;;
19671;SDS011;9983;51.114;13.788;2023-05-13T03:34:50;7.70;;;5.37;;
19671;SDS011;9983;51.114;13.788;2023-05-13T03:39:50;5.82;;;5.22;;
19671;SDS011;9983;51.114;13.788;2023-05-13T03:44:51;5.80;;;4.97;;
19671;SDS011;9983;51.114;13.788;2023-05-13T03:49:51;5.57;;;4.90;;
19671;SDS011;9983;51.114;13.788;2023-05-13T03:54:51;5.30;;;4.80;;
19671;SDS011;9983;51.114;13.788;2023-05-13T03:59:51;7.05;;;5.28;;
19671;SDS011;9983;51.114;13.788;2023-05-13T04:04:52;5.90;;;5.30;;
19671;SDS011;9983;51.114;13.788;2023-05-13T04:09:52;7.10;;;5.03;;
19671;SDS011;9983;51.114;13.788;2023-05-13T04:14:53;5.68;;;5.07;;
19671;SDS011;9983;51.114;13.788;2023-05-13T04:19:53;6.85;;;5.40;;
19671;SDS011;9983;51.114;13.788;2023-05-13T04:24:54;6.07;;;5.35;;
19671;SDS011;9983;51.114;13.788;2023-05-13T04:29:57;7.55;;;5.60;;
19671;SDS011;9983;51.114;13.788;2023-05-13T04:34:58;5.93;;;5.43;;
19671;SDS011;9983;51.114;13.788;2023-05-13T04:39:58;5.18;;;4.78;;
19671;SDS011;9983;51.114;13.788;2023-05-13T04:44:58;5.82;;;4.90;;
19671;SDS011;9983;51.114;13.788;2023-05-13T04:49:59;5.30;;;4.80;;
19671;SDS011;9983;51.114;13.788;2023-05-13T04:54:59;5.90;;;5.30;;
19671;SDS011;9983;51.114;13.788;2023-05-13T05:00:00;5.20;;;4.80;;
19671;SDS011;9983;51.114;13.788;2023-05-13T05:05:00;5.85;;;5.00;;
19671;SDS011;9983;51.114;13.788;2023-05-13T05:10:01;6.00;;;5.07;;
19671;SDS011;9983;51.114;13.788;2023-05-13T05:15:01;5.50;;;5.00;;
19671;SDS011;9983;51.114;13.788;2023-05-13T05:20:01;5.75;;;5.15;;
19671;SDS011;9983;51.114;13.788;2023-05-13T05:25:01;5.55;;;4.78;;
19671;SDS011;9983;51.114;13.788;2023-05-13T05:30:02;4.82;;;4.43;;
19671;SDS011;9983;51.114;13.788;2023-05-13T05:35:03;4.90;;;4.50;;
19671;SDS011;9983;51.114;13.788;2023-05-13T05:40:04;4.82;;;4.07;;
19671;SDS011;9983;51.114;13.788;2023-05-13T05:45:05;5.53;;;4.32;;
19671;SDS011;9983;51.114;13.788;2023-05-13T05:50:06;4.70;;;4.30;;
19671;SDS011;9983;51.114;13.788;2023-05-13T05:55:06;4.03;;;3.72;;
19671;SDS011;9983;51.114;13.788;2023-05-13T06:00:07;4.57;;;4.10;;
19671;SDS011;9983;51.114;13.788;2023-05-13T06:05:08;4.10;;;3.70;;
19671;SDS011;9983;51.114;13.788;2023-05-13T06:10:08;3.80;;;3.50;;
19671;SDS011;9983;51.114;13.788;2023-05-13T06:15:09;3.95;;;3.40;;
19671;SDS011;9983;51.114;13.788;2023-05-13T06:20:10;3.90;;;3.60;;
19671;SDS011;9983;51.114;13.788;2023-05-13T06:25:10;3.75;;;3.45;;
19671;SDS011;9983;51.114;13.788;2023-05-13T06:30:11;3.03;;;2.83;;
19671;SDS011;9983;51.114;13.788;2023-05-13T06:35:11;3.20;;;2.90;;
19671;SDS011;9983;51.114;13.788;2023-05-13T06:40:12;3.40;;;3.10;;
19671;SDS011;9983;51.114;13.788;2023-05-13T06:45:12;3.45;;;2.83;;
19671;SDS011;9983;51.114;13.788;2023-05-13T06:50:12;2.45;;;2.30;;
19671;SDS011;9983;51.114;13.788;2023-05-13T06:55:12;3.50;;;2.95;;
19671;SDS011;9983;51.114;13.788;2023-05-13T07:00:14;2.92;;;2.72;;
19671;SDS011;9983;51.114;13.788;2023-05-13T07:05:15;2.88;;;2.55;;
19671;SDS011;9983;51.114;13.788;2023-05-13T07:10:15;3.30;;;3.00;;
19671;SDS011;9983;51.114;13.788;2023-05-13T07:15:15;3.40;;;2.72;;
19671;SDS011;9983;51.114;13.788;2023-05-13T07:20:15;3.28;;;2.30;;
19671;SDS011;9983;51.114;13.788;2023-05-13T07:25:20;2.45;;;1.92;;
19671;SDS011;9983;51.114;13.788;2023-05-13T07:30:21;2.63;;;2.42;;
19671;SDS011;9983;51.114;13.788;2023-05-13T07:35:21;2.10;;;2.00;;
19671;SDS011;9983;51.114;13.788;2023-05-13T07:40:21;2.70;;;2.40;;
19671;SDS011;9983;51.114;13.788;2023-05-13T07:45:21;2.50;;;2.30;;
19671;SDS011;9983;51.114;13.788;2023-05-13T07:50:22;2.55;;;2.22;;
19671;SDS011;9983;51.114;13.788;2023-05-13T07:55:22;3.70;;;2.72;;
19671;SDS011;9983;51.114;13.788;2023-05-13T08:00:22;3.70;;;2.38;;
19671;SDS011;9983;51.114;13.788;2023-05-13T08:05:23;2.50;;;2.30;;
19671;SDS011;9983;51.114;13.788;2023-05-13T08:10:23;3.47;;;3.20;;
19671;SDS011;9983;51.114;13.788;2023-05-13T08:15:24;4.38;;;2.53;;
19671;SDS011;9983;51.114;13.788;2023-05-13T08:20:25;2.60;;;2.40;;
19671;SDS011;9983;51.114;13.788;2023-05-13T08:25:28;3.30;;;2.83;;
19671;SDS011;9983;51.114;13.788;2023-05-13T08:30:29;3.38;;;3.08;;
19671;SDS011;9983;51.114;13.788;2023-05-13T08:35:29;2.75;;;2.55;;
19671;SDS011;9983;51.114;13.788;2023-05-13T08:40:31;3.72;;;2.70;;
19671;SDS011;9983;51.114;13.788;2023-05-13T08:45:32;2.88;;;2.67;;
19671;SDS011;9983;51.114;13.788;2023-05-13T08:50:32;2.78;;;2.58;;
19671;SDS011;9983;51.114;13.788;2023-05-13T08:55:32;3.13;;;2.85;;
19671;SDS011;9983;51.114;13.788;2023-05-13T09:00:33;2.90;;;2.70;;
19671;SDS011;9983;51.114;13.788;2023-05-13T09:05:34;3.80;;;3.08;;
19671;SDS011;9983;51.114;13.788;2023-05-13T09:10:35;3.63;;;3.05;;
19671;SDS011;9983;51.114;13.788;2023-05-13T09:15:36;5.25;;;2.95;;
19671;SDS011;9983;51.114;13.788;2023-05-13T09:20:40;3.38;;;2.72;;
19671;SDS011;9983;51.114;13.788;2023-05-13T09:25:41;2.90;;;2.70;;
19671;SDS011;9983;51.114;13.788;2023-05-13T09:30:42;3.42;;;3.13;;
19671;SDS011;9983;51.114;13.788;2023-05-13T09:35:51;4.65;;;2.92;;
19671;SDS011;9983;51.114;13.788;2023-05-13T09:40:56;3.00;;;2.70;;
19671;SDS011;9983;51.114;13.788;2023-05-13T09:46:02;3.00;;;2.80;;
19671;SDS011;9983;51.114;13.788;2023-05-13T09:51:03;3.33;;;3.05;;
19671;SDS011;9983;51.114;13.788;2023-05-13T09:56:04;2.90;;;2.50;;
19671;SDS011;9983;51.114;13.788;2023-05-13T10:01:08;4.20;;;2.92;;
19671;SDS011;9983;51.114;13.788;2023-05-13T10:06:09;2.70;;;2.50;;
19671;SDS011;9983;51.114;13.788;2023-05-13T10:11:09;3.22;;;2.92;;
19671;SDS011;9983;51.114;13.788;2023-05-13T10:16:14;4.25;;;2.78;;
19671;SDS011;9983;51.114;13.788;2023-05-13T10:21:15;3.00;;;2.80;;
19671;SDS011;9983;51.114;13.788;2023-05-13T10:26:16;5.75;;;3.10;;
19671;SDS011;9983;51.114;13.788;2023-05-13T10:31:16;4.32;;;3.00;;
19671;SDS011;9983;51.114;13.788;2023-05-13T10:41:58;3.67;;;3.13;;
19671;SDS011;9983;51.114;13.788;2023-05-13T10:47:07;2.78;;;2.67;;
19671;SDS011;9983;51.114;13.788;2023-05-13T10:52:08;3.28;;;3.00;;
19671;SDS011;9983;51.114;13.788;2023-05-13T10:57:12;3.20;;;2.90;;
19671;SDS011;9983;51.114;13.788;2023-05-13T11:02:22;3.67;;;3.00;;
19671;SDS011;9983;51.114;13.788;2023-05-13T11:07:23;3.28;;;3.08;;
19671;SDS011;9983;51.114;13.788;2023-05-13T11:12:23;5.30;;;3.45;;
19671;SDS011;9983;51.114;13.788;2023-05-13T11:17:23;3.30;;;3.00;;
19671;SDS011;9983;51.114;13.788;2023-05-13T11:22:23;2.55;;;2.35;;
19671;SDS011;9983;51.114;13.788;2023-05-13T11:27:24;2.42;;;1.75;;
19671;SDS011;9983;51.114;13.788;2023-05-13T11:37:49;4.28;;;2.40;;
19671;SDS011;9983;51.114;13.788;2023-05-13T11:42:50;2.45;;;2.25;;
19671;SDS011;9983;51.114;13.788;2023-05-13T11:47:51;2.42;;;2.10;;
19671;SDS011;9983;51.114;13.788;2023-05-13T11:52:56;2.53;;;2.30;;
19671;SDS011;9983;51.114;13.788;2023-05-13T11:57:59;2.20;;;2.10;;
19671;SDS011;9983;51.114;13.788;2023-05-13T12:03:01;3.40;;;2.57;;
19671;SDS011;9983;51.114;13.788;2023-05-13T12:08:10;2.88;;;2.67;;
19671;SDS011;9983;51.114;13.788;2023-05-13T12:13:10;2.55;;;2.35;;
19671;SDS011;9983;51.114;13.788;2023-05-13T12:18:11;3.75;;;2.60;;
19671;SDS011;9983;51.114;13.788;2023-05-13T12:23:12;2.20;;;2.05;;
19671;SDS011;9983;51.114;13.788;2023-05-13T12:33:23;2.42;;;2.22;;
19671;SDS011;9983;51.114;13.788;2023-05-13T12:38:24;2.22;;;2.10;;
19671;SDS011;9983;51.114;13.788;2023-05-13T12:43:24;2.20;;;2.10;;
19671;SDS011;9983;51.114;13.788;2023-05-13T12:48:24;2.55;;;2.28;;
19671;SDS011;9983;51.114;13.788;2023-05-13T12:53:25;2.20;;;1.97;;
19671;SDS011;9983;51.114;13.788;2023-05-13T12:58:25;2.03;;;1.93;;
19671;SDS011;9983;51.114;13.788;2023-05-13T13:03:25;2.20;;;2.10;;
19671;SDS011;9983;51.114;13.788;2023-05-13T13:08:26;2.10;;;2.00;;
19671;SDS011;9983;51.114;13.788;2023-05-13T13:13:27;1.95;;;1.85;;
19671;SDS011;9983;51.114;13.788;2023-05-13T13:18:27;2.65;;;2.10;;
19671;SDS011;9983;51.114;13.788;2023-05-13T13:23:28;2.15;;;2.00;;
19671;SDS011;9983;51.114;13.788;2023-05-13T13:28:28;2.05;;;1.95;;
19671;SDS011;9983;51.114;13.788;2023-05-13T13:33:30;2.30;;;2.10;;
19671;SDS011;9983;51.114;13.788;2023-05-13T13:38:30;2.20;;;2.00;;
19671;SDS011;9983;51.114;13.788;2023-05-13T13:43:31;2.30;;;2.03;;
19671;SDS011;9983;51.114;13.788;2023-05-13T13:48:31;2.30;;;2.20;;
19671;SDS011;9983;51.114;13.788;2023-05-13T13:53:31;2.33;;;2.20;;
19671;SDS011;9983;51.114;13.788;2023-05-13T13:58:31;2.13;;;2.03;;
19671;SDS011;9983;51.114;13.788;2023-05-13T14:03:32;2.63;;;2.38;;
19671;SDS011;9983;51.114;13.788;2023-05-13T14:08:32;2.47;;;2.28;;
19671;SDS011;9983;51.114;13.788;2023-05-13T14:13:32;3.15;;;2.58;;
19671;SDS011;9983;51.114;13.788;2023-05-13T14:18:32;2.38;;;2.20;;
19671;SDS011;9983;51.114;13.788;2023-05-13T14:23:33;2.67;;;2.47;;
19671;SDS011;9983;51.114;13.788;2023-05-13T14:28:33;2.75;;;2.13;;
19671;SDS011;9983;51.114;13.788;2023-05-13T14:33:33;2.47;;;2.17;;
19671;SDS011;9983;51.114;13.788;2023-05-13T14:38:34;2.67;;;2.47;;
19671;SDS011;9983;51.114;13.788;2023-05-13T14:43:34;2.67;;;2.20;;
19671;SDS011;9983;51.114;13.788;2023-05-13T14:48:34;2.53;;;2.33;;
19671;SDS011;9983;51.114;13.788;2023-05-13T14:53:34;2.97;;;2.75;;
19671;SDS011;9983;51.114;13.788;2023-05-13T14:58:35;3.63;;;2.83;;
19671;SDS011;9983;51.114;13.788;2023-05-13T15:03:35;2.50;;;2.33;;
19671;SDS011;9983;51.114;13.788;2023-05-13T15:08:36;3.03;;;2.30;;
19671;SDS011;9983;51.114;13.788;2023-05-13T15:13:36;2.75;;;2.55;;
19671;SDS011;9983;51.114;13.788;2023-05-13T15:18:38;2.75;;;2.55;;
19671;SDS011;9983;51.114;13.788;2023-05-13T15:23:38;3.00;;;2.80;;
19671;SDS011;9983;51.114;13.788;2023-05-13T15:28:38;2.80;;;2.60;;
19671;SDS011;9983;51.114;13.788;2023-05-13T15:33:38;9.52;;;3.58;;
19671;SDS011;9983;51.114;13.788;2023-05-13T15:38:39;3.42;;;2.63;;
19671;SDS011;9983;51.114;13.788;2023-05-13T15:43:39;2.85;;;2.65;;
19671;SDS011;9983;51.114;13.788;2023-05-13T15:48:39;3.92;;;2.70;;
19671;SDS011;9983;51.114;13.788;2023-05-13T15:53:40;3.00;;;2.80;;
19671;SDS011;9983;51.114;13.788;2023-05-13T15:58:40;4.22;;;2.33;;
19671;SDS011;9983;51.114;13.788;2023-05-13T16:03:41;2.80;;;2.60;;
19671;SDS011;9983;51.114;13.788;2023-05-13T16:08:41;3.72;;;3.20;;
19671;SDS011;9983;51.114;13.788;2023-05-13T16:13:41;14.43;;;6.13;;
19671;SDS011;9983;51.114;13.788;2023-05-13T16:18:41;2.80;;;2.60;;
19671;SDS011;9983;51.114;13.788;2023-05-13T16:23:42;2.35;;;2.25;;
19671;SDS011;9983;51.114;13.788;2023-05-13T16:28:42;2.50;;;2.30;;
19671;SDS011;9983;51.114;13.788;2023-05-13T16:33:42;2.78;;;2.58;;
19671;SDS011;9983;51.114;13.788;2023-05-13T16:38:42;2.88;;;2.67;;
19671;SDS011;9983;51.114;13.788;2023-05-13T16:43:43;3.17;;;2.87;;
19671;SDS011;9983;51.114;13.788;2023-05-13T16:48:43;2.90;;;2.70;;
19671;SDS011;9983;51.114;13.788;2023-05-13T16:53:43;2.90;;;2.70;;
19671;SDS011;9983;51.114;13.788;2023-05-13T16:58:43;3.78;;;3.10;;
19671;SDS011;9983;51.114;13.788;2023-05-13T17:03:44;2.63;;;2.42;;
19671;SDS011;9983;51.114;13.788;2023-05-13T17:08:44;3.15;;;2.95;;
19671;SDS011;9983;51.114;13.788;2023-05-13T17:13:44;2.95;;;2.63;;
19671;SDS011;9983;51.114;13.788;2023-05-13T17:18:45;2.97;;;2.78;;
19671;SDS011;9983;51.114;13.788;2023-05-13T17:23:45;3.05;;;2.85;;
19671;SDS011;9983;51.114;13.788;2023-05-13T17:28:45;3.30;;;3.00;;
19671;SDS011;9983;51.114;13.788;2023-05-13T17:33:46;3.00;;;2.70;;
19671;SDS011;9983;51.114;13.788;2023-05-13T17:38:46;3.50;;;3.17;;
19671;SDS011;9983;51.114;13.788;2023-05-13T17:43:48;4.20;;;3.00;;
19671;SDS011;9983;51.114;13.788;2023-05-13T17:48:48;4.88;;;3.53;;
19671;SDS011;9983;51.114;13.788;2023-05-13T17:53:48;3.72;;;3.42;;
19671;SDS011;9983;51.114;13.788;2023-05-13T17:58:48;4.28;;;3.50;;
19671;SDS011;9983;51.114;13.788;2023-05-13T18:03:49;3.35;;;3.10;;
19671;SDS011;9983;51.114;13.788;2023-05-13T18:08:49;3.70;;;3.40;;
19671;SDS011;9983;51.114;13.788;2023-05-13T18:13:49;3.53;;;3.33;;
19671;SDS011;9983;51.114;13.788;2023-05-13T18:18:49;3.95;;;3.50;;
19671;SDS011;9983;51.114;13.788;2023-05-13T18:23:50;4.28;;;3.88;;
19671;SDS011;9983;51.114;13.788;2023-05-13T18:28:50;4.00;;;3.70;;
19671;SDS011;9983;51.114;13.788;2023-05-13T18:33:50;3.83;;;3.53;;
19671;SDS011;9983;51.114;13.788;2023-05-13T18:38:50;3.85;;;3.55;;
19671;SDS011;9983;51.114;13.788;2023-05-13T18:43:51;3.92;;;3.63;;
19671;SDS011;9983;51.114;13.788;2023-05-13T18:48:51;3.72;;;3.42;;
19671;SDS011;9983;51.114;13.788;2023-05-13T18:53:51;4.03;;;3.65;;
19671;SDS011;9983;51.114;13.788;2023-05-13T18:58:51;4.22;;;3.92;;
19671;SDS011;9983;51.114;13.788;2023-05-13T19:03:52;4.80;;;4.00;;
19671;SDS011;9983;51.114;13.788;2023-05-13T19:08:52;4.43;;;4.03;;
19671;SDS011;9983;51.114;13.788;2023-05-13T19:13:52;4.33;;;3.93;;
19671;SDS011;9983;51.114;13.788;2023-05-13T19:18:52;4.30;;;3.90;;
19671;SDS011;9983;51.114;13.788;2023-05-13T19:23:53;4.47;;;4.07;;
19671;SDS011;9983;51.114;13.788;2023-05-13T19:28:53;4.28;;;3.95;;
19671;SDS011;9983;51.114;13.788;2023-05-13T19:33:53;4.50;;;4.10;;
19671;SDS011;9983;51.114;13.788;2023-05-13T19:38:54;4.50;;;4.20;;
19671;SDS011;9983;51.114;13.788;2023-05-13T19:43:54;4.70;;;4.18;;
19671;SDS011;9983;51.114;13.788;2023-05-13T19:48:54;4.90;;;4.50;;
19671;SDS011;9983;51.114;13.788;2023-05-13T19:53:55;4.90;;;4.50;;
19671;SDS011;9983;51.114;13.788;2023-05-13T19:58:55;5.45;;;4.93;;
19671;SDS011;9983;51.114;13.788;2023-05-13T20:03:56;5.28;;;4.85;;
19671;SDS011;9983;51.114;13.788;2023-05-13T20:08:58;5.80;;;4.78;;
19671;SDS011;9983;51.114;13.788;2023-05-13T20:13:59;5.70;;;5.20;;
19671;SDS011;9983;51.114;13.788;2023-05-13T20:19:00;5.80;;;5.30;;
19671;SDS011;9983;51.114;13.788;2023-05-13T20:24:00;5.00;;;4.60;;
19671;SDS011;9983;51.114;13.788;2023-05-13T20:29:01;5.28;;;4.75;;
19671;SDS011;9983;51.114;13.788;2023-05-13T20:34:01;5.75;;;5.20;;
19671;SDS011;9983;51.114;13.788;2023-05-13T20:39:02;5.65;;;5.07;;
19671;SDS011;9983;51.114;13.788;2023-05-13T20:44:03;5.45;;;5.03;;
19671;SDS011;9983;51.114;13.788;2023-05-13T20:49:03;6.03;;;5.53;;
19671;SDS011;9983;51.114;13.788;2023-05-13T20:54:03;6.18;;;5.60;;
19671;SDS011;9983;51.114;13.788;2023-05-13T20:59:04;5.50;;;5.03;;
19671;SDS011;9983;51.114;13.788;2023-05-13T21:04:05;6.07;;;5.47;;
19671;SDS011;9983;51.114;13.788;2023-05-13T21:09:05;5.82;;;5.43;;
19671;SDS011;9983;51.114;13.788;2023-05-13T21:14:05;5.95;;;5.45;;
19671;SDS011;9983;51.114;13.788;2023-05-13T21:19:05;5.70;;;5.20;;
19671;SDS011;9983;51.114;13.788;2023-05-13T21:24:06;6.75;;;5.63;;
19671;SDS011;9983;51.114;13.788;2023-05-13T21:29:06;6.35;;;5.85;;
19671;SDS011;9983;51.114;13.788;2023-05-13T21:34:06;6.15;;;5.65;;
19671;SDS011;9983;51.114;13.788;2023-05-13T21:39:07;6.13;;;5.63;;
19671;SDS011;9983;51.114;13.788;2023-05-13T21:44:09;6.35;;;5.85;;
19671;SDS011;9983;51.114;13.788;2023-05-13T21:49:09;6.47;;;5.88;;
19671;SDS011;9983;51.114;13.788;2023-05-13T21:54:10;6.10;;;5.60;;
19671;SDS011;9983;51.114;13.788;2023-05-13T21:59:11;6.30;;;5.70;;
19671;SDS011;9983;51.114;13.788;2023-05-13T22:04:11;6.75;;;6.00;;
19671;SDS011;9983;51.114;13.788;2023-05-13T22:09:11;5.97;;;5.38;;
19671;SDS011;9983;51.114;13.788;2023-05-13T22:14:12;6.28;;;5.68;;
19671;SDS011;9983;51.114;13.788;2023-05-13T22:19:12;6.22;;;5.63;;
19671;SDS011;9983;51.114;13.788;2023-05-13T22:24:13;6.75;;;6.18;;
19671;SDS011;9983;51.114;13.788;2023-05-13T22:29:13;6.15;;;5.65;;
19671;SDS011;9983;51.114;13.788;2023-05-13T22:34:13;6.82;;;6.18;;
19671;SDS011;9983;51.114;13.788;2023-05-13T22:39:14;6.57;;;5.80;;
19671;SDS011;9983;51.114;13.788;2023-05-13T22:44:16;8.07;;;6.25;;
19671;SDS011;9983;51.114;13.788;2023-05-13T22:49:16;7.07;;;6.30;;
19671;SDS011;9983;51.114;13.788;2023-05-13T22:54:16;6.93;;;6.32;;
19671;SDS011;9983;51.114;13.788;2023-05-13T22:59:16;6.97;;;6.38;;
19671;SDS011;9983;51.114;13.788;2023-05-13T23:04:17;6.75;;;6.15;;
19671;SDS011;9983;51.114;13.788;2023-05-13T23:09:17;7.10;;;6.43;;
19671;SDS011;9983;51.114;13.788;2023-05-13T23:14:17;7.22;;;6.55;;
19671;SDS011;9983;51.114;13.788;2023-05-13T23:19:17;7.05;;;6.35;;
19671;SDS011;9983;51.114;13.788;2023-05-13T23:24:18;7.15;;;6.45;;
19671;SDS011;9983;51.114;13.788;2023-05-13T23:29:18;7.00;;;6.40;;
19671;SDS011;9983;51.114;13.788;2023-05-13T23:34:18;6.95;;;6.35;;
19671;SDS011;9983;51.114;13.788;2023-05-13T23:39:18;7.28;;;6.55;;
19671;SDS011;9983;51.114;13.788;2023-05-13T23:44:19;7.15;;;6.55;;
19671;SDS011;9983;51.114;13.788;2023-05-13T23:49:19;7.25;;;6.53;;
19671;SDS011;9983;51.114;13.788;2023-05-13T23:54:19;6.97;;;6.38;;
19671;SDS011;9983;51.114;13.788;2023-05-13T23:59:20;8.10;;;6.97;;
